createdAt,value
2022-10-21T00:02:10.953Z,10.23
2022-10-21T00:07:14.230Z,10.97
2022-10-21T00:12:19.184Z,10.70
2022-10-21T00:17:22.682Z,11.90
2022-10-21T00:22:26.036Z,12.93
2022-10-21T00:27:30.961Z,12.47
2022-10-21T00:32:34.810Z,12.88
2022-10-21T00:37:38.447Z,12.53
2022-10-21T00:47:53.262Z,13.02
2022-10-21T00:52:58.684Z,12.63
2022-10-21T00:58:04.976Z,13.20
2022-10-21T01:03:08.318Z,13.27
2022-10-21T01:08:11.686Z,12.38
2022-10-21T01:13:26.708Z,13.07
2022-10-21T01:18:36.273Z,11.95
2022-10-21T01:24:12.578Z,12.07
2022-10-21T01:29:46.756Z,11.23
2022-10-21T01:34:59.133Z,10.63
2022-10-21T01:40:10.132Z,10.00
2022-10-21T01:45:19.861Z,9.35
2022-10-21T01:50:28.491Z,9.60
2022-10-21T01:55:33.699Z,8.83
2022-10-21T02:00:38.539Z,8.70
2022-10-21T02:05:43.420Z,9.13
2022-10-21T02:10:49.821Z,8.63
2022-10-21T02:15:57.406Z,10.20
2022-10-21T02:21:07.474Z,8.85
2022-10-21T02:26:11.407Z,9.73
2022-10-21T02:31:38.793Z,9.20
2022-10-21T02:36:53.396Z,10.18
2022-10-21T02:41:59.279Z,9.53
2022-10-21T02:47:03.940Z,9.77
2022-10-21T02:52:08.678Z,10.90
2022-10-21T02:57:11.939Z,10.43
2022-10-21T03:02:15.357Z,10.98
2022-10-21T03:07:20.034Z,11.05
2022-10-21T03:12:23.332Z,10.70
2022-10-21T03:17:26.598Z,11.32
2022-10-21T03:22:31.270Z,11.15
2022-10-21T03:27:35.100Z,10.87
2022-10-21T03:32:38.877Z,12.43
2022-10-21T03:37:43.702Z,12.32
2022-10-21T03:42:46.966Z,11.48
2022-10-21T03:47:50.237Z,13.25
2022-10-21T03:52:55.515Z,12.45
2022-10-21T03:57:58.839Z,11.05
2022-10-21T04:03:02.182Z,13.10
2022-10-21T04:08:07.015Z,13.40
2022-10-21T04:13:10.297Z,13.60
2022-10-21T04:18:13.557Z,13.13
2022-10-21T04:23:18.193Z,13.82
2022-10-21T04:28:21.506Z,12.65
2022-10-21T04:33:24.965Z,12.57
2022-10-21T04:38:29.680Z,12.77
2022-10-21T04:43:33.026Z,12.57
2022-10-21T04:48:36.276Z,12.40
2022-10-21T04:53:40.955Z,11.73
2022-10-21T04:58:44.233Z,12.10
2022-10-21T05:03:47.569Z,12.40
2022-10-21T05:08:52.270Z,13.88
2022-10-21T05:13:55.621Z,12.30
2022-10-21T05:18:58.892Z,13.07
2022-10-21T05:24:03.682Z,13.07
2022-10-21T05:29:06.972Z,13.10
2022-10-21T05:34:10.223Z,12.75
2022-10-21T05:39:14.858Z,13.52
2022-10-21T05:44:18.126Z,13.30
2022-10-21T05:49:21.390Z,12.45
2022-10-21T05:54:26.087Z,13.18
2022-10-21T05:59:29.341Z,13.10
2022-10-21T06:04:36.412Z,14.27
2022-10-21T06:09:43.553Z,13.48
2022-10-21T06:14:46.882Z,14.55
2022-10-21T06:19:51.076Z,14.43
2022-10-21T06:24:55.920Z,13.95
2022-10-21T06:29:59.212Z,14.40
2022-10-21T06:35:02.507Z,14.90
2022-10-21T06:40:08.342Z,14.10
2022-10-21T06:45:12.270Z,14.10
2022-10-21T06:50:15.635Z,13.00
2022-10-21T06:55:20.381Z,11.48
2022-10-21T07:00:23.781Z,12.90
2022-10-21T07:05:27.140Z,13.03
2022-10-21T07:10:31.756Z,12.43
2022-10-21T07:15:35.049Z,11.60
2022-10-21T07:20:38.384Z,11.40
2022-10-21T07:25:43.039Z,10.40
2022-10-21T07:30:46.638Z,10.10
2022-10-21T07:35:49.906Z,10.57
2022-10-21T07:40:54.541Z,11.80
2022-10-21T07:46:01.845Z,11.48
2022-10-21T07:51:10.533Z,11.30
2022-10-21T07:56:16.912Z,9.85
2022-10-21T08:01:21.296Z,9.90
2022-10-21T08:06:26.227Z,9.10
2022-10-21T08:11:33.449Z,7.53
2022-10-21T08:16:37.675Z,7.60
2022-10-21T08:21:40.927Z,7.18
2022-10-21T08:26:45.598Z,7.28
2022-10-21T08:31:48.865Z,6.88
2022-10-21T08:36:52.138Z,7.07
2022-10-21T08:42:07.141Z,7.60
2022-10-21T08:47:22.125Z,7.15
2022-10-21T08:52:32.282Z,7.00
2022-10-21T08:57:37.470Z,7.45
2022-10-21T09:02:54.773Z,6.97
2022-10-21T09:08:13.770Z,7.40
2022-10-21T09:13:26.599Z,7.65
2022-10-21T09:18:47.164Z,7.53
2022-10-21T09:24:11.474Z,7.20
2022-10-21T09:29:26.877Z,6.57
2022-10-21T09:39:53.750Z,6.40
2022-10-21T10:10:41.834Z,5.72
2022-10-21T11:48:32.546Z,6.10
2022-10-21T11:53:48.962Z,6.07
2022-10-21T11:59:05.875Z,6.82
2022-10-21T12:04:34.567Z,6.43
2022-10-21T12:09:43.028Z,6.27
2022-10-21T12:14:51.015Z,7.47
2022-10-21T12:20:00.553Z,7.22
2022-10-21T12:25:18.431Z,7.07
2022-10-21T12:30:26.552Z,6.68
2022-10-21T12:35:45.449Z,7.23
2022-10-21T12:40:50.384Z,6.60
2022-10-21T12:46:05.792Z,14.17
2022-10-21T12:51:21.178Z,6.93
2022-10-21T12:56:31.610Z,7.40
2022-10-21T13:01:42.221Z,6.68
2022-10-21T13:06:57.740Z,7.13
2022-10-21T13:12:05.902Z,6.87
2022-10-21T13:17:46.197Z,6.43
2022-10-21T13:23:01.760Z,6.13
2022-10-21T13:28:20.856Z,6.22
2022-10-21T13:33:27.021Z,5.30
2022-10-21T13:38:34.902Z,5.38
2022-10-21T13:43:40.892Z,6.15
2022-10-21T13:48:46.847Z,5.73
2022-10-21T13:53:55.970Z,6.18
2022-10-21T13:58:59.550Z,6.63
2022-10-21T14:04:14.745Z,6.22
2022-10-21T14:09:22.021Z,6.50
2022-10-21T14:14:26.923Z,6.43
2022-10-21T14:19:35.459Z,6.15
2022-10-21T14:24:43.031Z,6.30
2022-10-21T14:29:46.746Z,5.97
2022-10-21T14:35:02.429Z,6.28
2022-10-21T14:40:20.423Z,6.18
2022-10-21T14:45:27.677Z,6.87
2022-10-21T14:50:31.073Z,6.75
2022-10-21T14:55:35.793Z,6.78
2022-10-21T15:00:41.666Z,10.48
2022-10-21T15:05:49.165Z,10.57
2022-10-21T15:11:14.636Z,8.35
2022-10-21T15:16:20.922Z,7.50
2022-10-21T15:21:34.294Z,7.30
2022-10-21T15:26:41.926Z,7.07
2022-10-21T15:31:45.322Z,8.53
2022-10-21T15:36:48.604Z,9.47
2022-10-21T15:41:55.260Z,8.77
2022-10-21T15:47:01.042Z,9.40
2022-10-21T15:52:04.866Z,9.80
2022-10-21T15:57:17.086Z,11.50
2022-10-21T16:02:20.366Z,13.52
2022-10-21T16:07:29.445Z,13.02
2022-10-21T16:12:34.294Z,13.37
2022-10-21T16:17:37.725Z,13.10
2022-10-21T16:22:41.394Z,12.25
2022-10-21T16:27:55.776Z,11.73
2022-10-21T16:33:00.116Z,13.25
2022-10-21T16:38:03.469Z,13.10
2022-10-21T16:43:08.149Z,13.45
2022-10-21T16:48:11.705Z,13.18
2022-10-21T16:53:17.855Z,14.60
2022-10-21T16:58:22.521Z,14.73
2022-10-21T17:03:26.219Z,14.77
2022-10-21T17:08:29.711Z,16.53
2022-10-21T17:13:34.451Z,17.90
2022-10-21T17:18:37.962Z,16.27
2022-10-21T17:23:41.501Z,15.63
2022-10-21T17:28:46.569Z,16.38
2022-10-21T17:33:50.907Z,17.42
2022-10-21T17:38:54.206Z,17.50
2022-10-21T17:44:01.894Z,18.50
2022-10-21T17:49:05.394Z,18.08
2022-10-21T17:54:08.663Z,18.13
2022-10-21T17:59:13.502Z,17.15
2022-10-21T18:04:16.904Z,18.00
2022-10-21T18:09:20.273Z,19.40
2022-10-21T18:14:24.981Z,19.53
2022-10-21T18:19:30.873Z,18.73
2022-10-21T18:24:36.307Z,18.75
2022-10-21T18:29:45.869Z,17.73
2022-10-21T18:34:51.019Z,18.23
2022-10-21T18:39:56.791Z,19.70
2022-10-21T18:45:03.642Z,19.33
2022-10-21T18:50:08.490Z,20.02
2022-10-21T18:55:12.004Z,19.02
2022-10-21T19:00:16.849Z,18.25
2022-10-21T19:05:20.309Z,18.77
2022-10-21T19:10:23.846Z,21.02
2022-10-21T19:15:29.405Z,18.47
2022-10-21T19:20:32.941Z,18.00
2022-10-21T19:25:36.281Z,17.85
2022-10-21T19:30:40.973Z,18.73
2022-10-21T19:35:44.233Z,18.35
2022-10-21T19:45:58.496Z,18.50
2022-10-21T19:51:01.890Z,20.70
2022-10-21T19:56:06.499Z,18.03
2022-10-21T20:01:13.266Z,19.23
2022-10-21T20:06:19.596Z,17.35
2022-10-21T20:11:23.500Z,18.23
2022-10-21T20:16:30.048Z,19.77
2022-10-21T20:21:34.624Z,19.23
2022-10-21T20:31:47.739Z,19.02
2022-10-21T20:36:50.994Z,20.97
2022-10-21T20:41:54.385Z,20.90
2022-10-21T20:46:59.571Z,20.90
2022-10-21T20:52:03.257Z,21.50
2022-10-21T20:57:06.645Z,21.43
2022-10-21T21:02:11.728Z,21.90
2022-10-21T21:07:16.484Z,20.47
2022-10-21T21:12:20.359Z,21.30
2022-10-21T21:17:25.378Z,21.70
2022-10-21T21:22:28.771Z,22.13
2022-10-21T21:27:32.328Z,22.63
2022-10-21T21:32:37.137Z,23.30
2022-10-21T21:37:40.548Z,23.13
2022-10-21T21:42:44.131Z,23.23
2022-10-21T21:47:49.127Z,21.83
2022-10-21T21:52:52.504Z,22.65
2022-10-21T21:57:56.027Z,22.77
2022-10-21T22:03:00.981Z,23.05
2022-10-21T22:08:05.394Z,22.80
2022-10-21T22:13:09.481Z,23.98
2022-10-21T22:18:14.766Z,24.88
2022-10-21T22:23:19.980Z,23.30
2022-10-21T22:28:23.301Z,23.70
2022-10-21T22:33:28.541Z,22.80
2022-10-21T22:38:31.881Z,23.17
2022-10-21T22:43:35.264Z,20.47
2022-10-21T22:48:39.976Z,20.33
2022-10-21T22:53:43.330Z,21.48
2022-10-21T22:58:46.628Z,20.70
2022-10-21T23:03:51.321Z,18.98
2022-10-21T23:08:54.792Z,18.90
2022-10-21T23:14:03.230Z,21.07
2022-10-21T23:24:21.286Z,20.15
2022-10-21T23:29:24.583Z,18.98
2022-10-21T23:34:30.373Z,17.73
2022-10-21T23:39:34.149Z,17.25
2022-10-21T23:44:37.455Z,16.20
2022-10-21T23:49:42.398Z,15.70
2022-10-21T23:54:45.692Z,15.90
2022-10-21T23:59:51.146Z,16.97
